Terminal Aerodrome Forecast
Issued by NWS

Home | Current Version | Previous Version | Text Only | Print | Product List | Glossary On
Versions: 1 2 3 4 5 6 7 8 9 10 11 12 13 14 15 16 17 18 19 20 21 22 23 24 25 26
000
FTUS46 KSEW 280500
TAFSEA
TAF
KSEA 280534Z 2806/2912 VRB03KT P6SM BKN250
     FM281000 19008KT P6SM BKN250
     FM281200 19008KT P6SM SCT050 BKN100 OVC200
     FM281600 21010KT P6SM -RA BKN022 OVC035
     FM282000 21010KT P6SM -SHRA BKN025 BKN040
     FM290000 21010KT P6SM VCSH SCT025 BKN040=

USA.gov is the U.S. government's official web portal to all federal, state and local government web resources and services.